Silverpeak, Nevada
Current Conditions -  °F | °C
As of 10:56 PM on Saturday 22 Nov 2014 (Local Time) from KTPH Reporting Station
Clear Clear  
Wind Chill: 31°   Ceiling: Unl
Heat Index: 39°   Visibility: 10mi
Dew Point: 24°   Wind: 14mph
Humidity: 55%   Direction: 340°NNW
Pressure: 30.15"   Gusts: 24mph
Location:  37.75°N, 117.64°W
Report Text: KTPH 230656Z AUTO 34012G21KT 10SM CLR 04/M04 A3015 RMK AO2 PK WND 35032/0619 SLP192 T00391044
Loading
Personal Weather Stations






























Interactive Weather Map New forecast layout! Learn more

10-Day Weather Forecast

Advertisements
Track Severe Weather on mobile